Time;durP1;ratioP1;P1;durP2;ratioP2;P2;SDS_P1;SDS_P2;PMS_P1;PMS_P2;Temp;Humidity;BMP_temperature;BMP_pressure;BME280_temperature;BME280_humidity;BME280_pressure;Samples;Min_cycle;Max_cycle;Signal;HPM_P1;HPM_P2
2021/05/25 00:00:45;;;;;;;5.53;1.17;;;;;;;11.68;64.98;100888.22;4955561;29;20467;-67
2021/05/25 00:07:37;;;;;;;5.80;1.55;;;;;;;11.21;64.97;100905.41;4955617;29;20076;-65
2021/05/25 00:10:06;;;;;;;6.43;1.30;;;;;;;11.19;65.00;100907.69;4955000;29;20047;-67
2021/05/25 00:12:34;;;;;;;5.25;1.00;;;;;;;11.32;64.45;100906.78;4954312;29;20047;-66
2021/05/25 00:15:07;;;;;;;3.88;0.95;;;;;;;11.37;64.57;100903.13;4954240;29;20047;-65
2021/05/25 00:17:34;;;;;;;4.30;1.20;;;;;;;11.35;64.60;100911.66;4954061;29;20395;-65
2021/05/25 00:20:06;;;;;;;2.85;0.88;;;;;;;11.06;65.73;100914.88;4954991;29;20047;-66
2021/05/25 00:22:34;;;;;;;3.53;0.82;;;;;;;11.16;65.08;100928.41;4954681;29;20494;-65
2021/05/25 00:25:03;;;;;;;5.20;1.20;;;;;;;11.23;64.84;100941.75;4954829;29;20048;-65
2021/05/25 00:27:31;;;;;;;4.63;0.90;;;;;;;11.30;64.19;100929.16;4954255;29;20048;-65
2021/05/25 00:29:58;;;;;;;3.95;0.90;;;;;;;11.34;64.09;100935.69;4953975;29;20483;-66
2021/05/25 00:32:26;;;;;;;5.80;0.90;;;;;;;11.18;64.34;100942.69;4953597;29;20526;-66
2021/05/25 00:34:54;;;;;;;4.03;0.82;;;;;;;10.87;65.41;100940.97;4937166;29;20050;-65
2021/05/25 00:37:21;;;;;;;3.33;0.80;;;;;;;10.92;65.70;100955.44;4937661;29;20058;-66
2021/05/25 00:39:49;;;;;;;6.45;1.25;;;;;;;10.95;65.77;100956.75;4954200;29;20055;-66
2021/05/25 00:42:16;;;;;;;7.53;1.23;;;;;;;11.03;65.36;100956.84;4954428;29;20506;-65
2021/05/25 00:44:43;;;;;;;4.95;1.02;;;;;;;11.18;64.82;100969.44;4953695;29;20051;-65
2021/05/25 00:47:11;;;;;;;8.65;1.17;;;;;;;10.61;65.69;100982.03;4938032;29;20070;-65
2021/05/25 00:49:39;;;;;;;7.95;1.08;;;;;;;10.62;66.39;100982.81;4953785;29;20514;-65
2021/05/25 00:52:06;;;;;;;3.63;0.90;;;;;;;10.84;66.23;100977.41;4954092;28;20081;-66
2021/05/25 00:54:33;;;;;;;4.10;0.98;;;;;;;10.61;66.22;100986.72;4954868;29;20051;-65
2021/05/25 00:57:02;;;;;;;6.35;1.17;;;;;;;10.48;67.18;100993.84;4936264;29;20063;-67
2021/05/25 00:59:30;;;;;;;5.85;1.02;;;;;;;10.49;66.59;101000.19;4936672;29;20055;-66
2021/05/25 01:01:57;;;;;;;5.05;1.10;;;;;;;10.60;67.37;100996.91;4937307;29;20051;-65
2021/05/25 01:09:03;;;;;;;4.68;1.08;;;;;;;10.56;66.91;100998.66;4954332;29;20039;-67
2021/05/25 01:11:37;;;;;;;5.70;1.00;;;;;;;10.56;66.54;101004.16;4954335;29;20483;-65
2021/05/25 01:14:05;;;;;;;3.50;0.90;;;;;;;10.53;66.81;100998.44;4954148;29;20484;-66
2021/05/25 01:16:32;;;;;;;7.15;1.10;;;;;;;10.54;66.76;101000.06;4936595;29;20058;-66
2021/05/25 01:19:03;;;;;;;4.75;0.88;;;;;;;10.64;66.40;100994.34;4953184;29;20062;-66
2021/05/25 01:21:36;;;;;;;3.80;0.90;;;;;;;10.52;66.16;101007.81;4953312;29;20051;-65
2021/05/25 01:24:05;;;;;;;3.67;0.80;;;;;;;10.22;67.29;101013.94;4953597;29;20360;-65
2021/05/25 01:26:33;;;;;;;6.30;1.17;;;;;;;10.11;68.59;101030.63;4953554;29;20055;-66
2021/05/25 01:29:00;;;;;;;6.13;1.35;;;;;;;9.74;70.78;101055.47;4953295;29;20506;-65
2021/05/25 01:31:28;;;;;;;5.60;1.25;;;;;;;9.11;74.38;101059.69;4920558;29;20062;-65
2021/05/25 01:33:55;;;;;;;7.43;0.98;;;;;;;9.00;76.60;101072.75;4953834;29;20062;-66
2021/05/25 01:36:23;;;;;;;4.30;1.25;;;;;;;9.22;75.00;101072.19;4953768;29;20051;-64
2021/05/25 01:38:50;;;;;;;8.35;0.77;;;;;;;8.57;76.84;101084.81;4953696;29;20403;-64
2021/05/25 01:41:17;;;;;;;5.47;0.70;;;;;;;8.63;78.27;101075.38;4953461;29;20058;-66
2021/05/25 01:43:45;;;;;;;1.83;0.70;;;;;;;9.17;76.30;101076.94;4954240;29;20414;-65
2021/05/25 01:46:12;;;;;;;5.72;1.20;;;;;;;9.33;74.71;101067.38;4953347;29;20048;-65
2021/05/25 01:48:40;;;;;;;4.03;1.20;;;;;;;9.39;74.65;101083.50;4936026;29;20485;-65
2021/05/25 01:51:07;;;;;;;2.97;0.90;;;;;;;9.33;74.21;101072.88;4953643;28;20051;-64
2021/05/25 01:53:35;;;;;;;2.13;0.80;;;;;;;9.49;73.85;101079.75;4953408;29;20502;-65
2021/05/25 01:56:02;;;;;;;3.05;0.93;;;;;;;9.25;74.92;101088.09;4953897;29;20043;-66
2021/05/25 01:58:35;;;;;;;2.40;0.70;;;;;;;9.20;76.10;101082.66;4952958;29;20051;-65
2021/05/25 02:01:07;;;;;;;1.90;0.60;;;;;;;9.06;75.95;101076.25;4952742;29;20399;-65
2021/05/25 02:03:36;;;;;;;1.77;0.73;;;;;;;9.33;76.17;101072.88;4936194;29;20055;-66
2021/05/25 02:06:07;;;;;;;3.13;0.77;;;;;;;9.38;75.77;101070.03;4952898;29;20055;-66
2021/05/25 02:08:35;;;;;;;1.38;0.50;;;;;;;9.63;75.85;101072.41;4936587;29;20391;-66
2021/05/25 02:11:04;;;;;;;4.05;0.40;;;;;;;9.45;75.00;101076.00;4940431;29;20047;-67
2021/05/25 02:13:34;;;;;;;2.60;0.68;;;;;;;9.61;75.17;101091.13;4956848;29;20055;-68
2021/05/25 02:16:04;;;;;;;1.08;0.43;;;;;;;9.72;75.11;101092.63;4939844;29;20051;-68
2021/05/25 02:18:35;;;;;;;3.10;0.55;;;;;;;9.79;74.94;101104.06;4924189;29;20055;-66
2021/05/25 02:21:05;;;;;;;2.90;0.70;;;;;;;9.70;74.54;101097.59;4940390;29;20490;-65
2021/05/25 02:23:33;;;;;;;2.05;0.50;;;;;;;9.67;74.91;101095.44;4956960;29;20055;-66
2021/05/25 02:26:01;;;;;;;1.83;0.52;;;;;;;9.72;74.83;101095.38;4956274;29;20057;-65
2021/05/25 02:28:28;;;;;;;3.42;0.50;;;;;;;9.57;74.53;101098.34;4939416;29;20051;-65
2021/05/25 02:30:56;;;;;;;1.90;0.60;;;;;;;9.50;75.43;101101.47;4939974;29;20487;-65
2021/05/25 02:33:25;;;;;;;2.85;0.60;;;;;;;9.48;75.99;101097.38;4956487;29;20407;-65
2021/05/25 02:35:55;;;;;;;5.80;0.88;;;;;;;9.72;75.19;101103.63;4939858;29;20062;-67
2021/05/25 02:38:22;;;;;;;;;;;;;;;9.91;74.22;101104.41;4939981;29;20047;-65
2021/05/25 02:40:50;;;;;;;2.97;0.88;;;;;;;9.87;74.55;101097.88;4956202;29;19922;-64
2021/05/25 02:43:22;;;;;;;2.88;0.95;;;;;;;10.08;74.44;101100.03;4956243;29;20419;-65
2021/05/25 02:45:51;;;;;;;3.17;0.70;;;;;;;10.22;74.00;101097.31;4939917;29;20501;-66
2021/05/25 02:48:19;;;;;;;3.85;0.90;;;;;;;10.31;73.57;101101.03;4963193;28;20043;-66
2021/05/25 02:55:26;;;;;;;8.13;1.13;;;;;;;10.48;72.90;101104.00;4919945;29;20048;-65
2021/05/25 02:57:54;;;;;;;;;;;;;;;10.19;73.36;101103.44;4937799;29;20388;-65
2021/05/25 03:00:24;;;;;;;7.25;1.33;;;;;;;10.30;73.35;101112.34;4936921;29;19926;-65
2021/05/25 03:02:51;;;;;;;7.60;1.52;;;;;;;10.39;73.11;101111.31;4920342;29;20051;-64
2021/05/25 03:09:55;;;;;;;5.75;1.55;;;;;;;10.35;73.24;101113.06;4937150;29;20431;-65
2021/05/25 03:12:23;;;;;;;9.82;1.50;;;;;;;10.49;72.73;101124.94;4936569;29;20396;-67
2021/05/25 03:14:52;;;;;;;11.05;1.90;;;;;;;10.54;72.79;101135.84;4903699;29;20052;-65
2021/05/25 03:17:22;;;;;;;9.85;1.67;;;;;;;10.67;72.46;101137.81;4936829;29;20384;-66
2021/05/25 03:19:53;;;;;;;16.50;2.15;;;;;;;10.53;72.84;101136.97;4936812;29;20044;-66
2021/05/25 03:22:20;;;;;;;11.02;1.65;;;;;;;10.69;72.89;101137.50;4919754;29;20396;-65
2021/05/25 03:24:48;;;;;;;8.65;2.22;;;;;;;10.75;72.52;101139.06;4936316;29;20052;-66
2021/05/25 03:27:15;;;;;;;12.98;1.92;;;;;;;10.74;72.20;101138.22;4936678;29;20488;-65
2021/05/25 03:29:43;;;;;;;14.15;2.28;;;;;;;10.65;72.61;101140.03;4936876;29;20059;-64
2021/05/25 03:32:10;;;;;;;11.85;1.70;;;;;;;10.67;72.24;101148.03;4935561;29;20054;-65
2021/05/25 03:34:39;;;;;;;16.38;2.40;;;;;;;10.71;72.04;101138.84;4936559;29;20058;-64
2021/05/25 03:37:06;;;;;;;14.65;2.05;;;;;;;10.58;72.28;101138.81;4919098;29;20063;-65
2021/05/25 03:39:34;;;;;;;16.00;2.35;;;;;;;10.67;71.98;101137.00;4936332;29;20067;-66
2021/05/25 03:42:02;;;;;;;17.67;2.80;;;;;;;10.70;71.80;101144.66;4936363;29;20052;-66
2021/05/25 03:44:30;;;;;;;19.90;2.90;;;;;;;10.58;71.92;101152.59;4936451;29;20056;-65
2021/05/25 03:46:57;;;;;;;13.50;2.67;;;;;;;10.64;71.79;101157.72;4919163;29;20052;-67
2021/05/25 03:49:25;;;;;;;19.38;2.55;;;;;;;10.56;71.80;101163.91;4919370;29;20050;-65
2021/05/25 03:51:52;;;;;;;13.02;2.22;;;;;;;10.59;72.00;101156.97;4935931;29;20388;-65
2021/05/25 03:54:25;;;;;;;21.05;2.33;;;;;;;10.52;72.25;101164.81;4936172;29;20400;-64
2021/05/25 03:57:06;;;;;;;17.08;2.38;;;;;;;10.55;72.06;101167.78;4936523;29;20047;-65
2021/05/25 03:59:34;;;;;;;21.08;2.83;;;;;;;10.51;72.10;101175.03;4935775;29;20063;-65
2021/05/25 04:02:01;;;;;;;16.75;2.28;;;;;;;10.61;72.22;101185.03;4935771;29;20056;-65
2021/05/25 04:04:31;;;;;;;11.05;2.00;;;;;;;10.63;71.47;101180.06;4919191;29;20078;-65
2021/05/25 04:06:58;;;;;;;22.00;3.03;;;;;;;10.46;71.97;101188.88;4918822;29;20054;-65
2021/05/25 04:09:26;;;;;;;17.48;2.45;;;;;;;10.46;72.50;101196.31;4918898;29;20051;-64
2021/05/25 04:11:54;;;;;;;17.55;2.60;;;;;;;10.18;73.09;101198.16;4936109;29;20416;-64
2021/05/25 04:14:22;;;;;;;13.30;2.65;;;;;;;10.12;73.65;101202.91;4919284;29;20063;-66
2021/05/25 04:16:49;;;;;;;15.23;2.20;;;;;;;10.41;72.80;101199.16;4935179;29;20496;-66
2021/05/25 04:19:17;;;;;;;13.00;2.40;;;;;;;10.36;72.83;101201.97;4935957;29;20043;-65
2021/05/25 04:26:12;;;;;;;11.65;1.95;;;;;;;10.48;72.36;101213.38;4934970;29;20051;-65
2021/05/25 04:28:40;;;;;;;27.58;3.35;;;;;;;10.70;71.88;101214.38;4935462;29;20483;-64
2021/05/25 04:31:07;;;;;;;12.75;2.00;;;;;;;10.70;71.17;101219.03;4934609;29;20054;-65
2021/05/25 04:33:38;;;;;;;18.88;2.42;;;;;;;10.70;70.98;101219.03;4934799;29;20052;-64
2021/05/25 04:40:34;;;;;;;18.77;2.58;;;;;;;10.62;70.77;101236.25;4935463;29;20043;-65
2021/05/25 04:43:03;;;;;;;19.00;2.83;;;;;;;10.61;71.59;101234.63;4934825;29;20062;-65
2021/05/25 04:45:34;;;;;;;13.77;2.43;;;;;;;10.67;71.24;101238.94;4918495;29;20056;-64
2021/05/25 04:48:01;;;;;;;14.63;2.30;;;;;;;10.84;70.54;101242.78;4918614;29;20043;-66
2021/05/25 04:54:56;;;;;;;15.95;2.40;;;;;;;10.68;71.44;101255.16;4950853;28;20048;-64
2021/05/25 04:57:24;;;;;;;18.15;2.40;;;;;;;10.51;71.95;101257.66;4936776;29;20490;-66
2021/05/25 04:59:51;;;;;;;13.82;2.30;;;;;;;10.62;71.74;101263.78;4954157;29;20043;-65
2021/05/25 05:02:19;;;;;;;14.75;2.50;;;;;;;10.70;71.24;101263.97;4953849;29;20566;-65
2021/05/25 05:04:46;;;;;;;14.85;2.78;;;;;;;10.75;71.42;101268.56;4954154;29;20054;-67
2021/05/25 05:07:14;;;;;;;13.02;2.35;;;;;;;10.95;70.56;101270.94;4952824;29;20051;-66
2021/05/25 05:09:41;;;;;;;14.30;2.65;;;;;;;11.05;70.18;101271.59;4953670;29;20051;-66
2021/05/25 05:12:09;;;;;;;20.27;2.83;;;;;;;11.22;69.43;101271.84;4953643;29;20079;-66
2021/05/25 05:14:39;;;;;;;16.88;2.22;;;;;;;10.88;70.35;101271.34;4936788;29;20055;-66
2021/05/25 05:17:06;;;;;;;14.77;2.63;;;;;;;10.74;70.24;101284.25;4937131;29;20047;-66
2021/05/25 05:19:34;;;;;;;12.23;2.38;;;;;;;10.72;70.86;101283.72;4953713;29;20058;-67
2021/05/25 05:22:01;;;;;;;15.70;2.53;;;;;;;10.80;70.38;101283.06;4953467;29;20051;-65
2021/05/25 05:24:28;;;;;;;18.38;3.00;;;;;;;10.90;70.37;101291.16;4936020;29;20085;-65
2021/05/25 05:26:56;;;;;;;18.63;2.65;;;;;;;10.93;70.42;101293.31;4937063;29;20377;-65
2021/05/25 05:29:23;;;;;;;16.65;3.17;;;;;;;11.13;69.90;101300.41;4953533;29;20047;-65
2021/05/25 05:31:51;;;;;;;19.98;3.35;;;;;;;11.26;69.18;101305.16;4953892;29;20048;-65
2021/05/25 05:34:18;;;;;;;14.23;2.58;;;;;;;10.87;69.26;101308.31;4936543;29;20055;-66
2021/05/25 05:36:46;;;;;;;21.73;2.65;;;;;;;10.85;69.59;101320.72;4936598;29;20051;-65
2021/05/25 05:39:13;;;;;;;12.32;2.60;;;;;;;11.04;70.45;101314.06;4953608;29;20062;-65
2021/05/25 05:41:42;;;;;;;20.45;3.55;;;;;;;11.06;69.74;101316.53;4953492;29;20043;-65
2021/05/25 05:44:09;;;;;;;18.55;3.97;;;;;;;11.09;69.65;101321.41;4937090;29;20055;-66
2021/05/25 05:46:37;;;;;;;18.95;3.08;;;;;;;11.28;69.28;101319.41;4956804;29;20059;-66
2021/05/25 05:49:04;;;;;;;13.80;3.13;;;;;;;11.46;68.35;101318.53;4957056;29;20054;-66
2021/05/25 05:51:32;;;;;;;14.70;2.90;;;;;;;11.22;68.55;101331.69;4957587;29;20124;-66
2021/05/25 05:53:59;;;;;;;16.20;2.83;;;;;;;11.46;68.55;101326.00;4956883;28;20062;-64
2021/05/25 05:56:27;;;;;;;16.75;2.88;;;;;;;11.48;67.90;101332.03;4940305;29;20513;-67
2021/05/25 05:58:55;;;;;;;21.23;3.05;;;;;;;11.13;69.15;101331.56;4957922;28;20487;-66
2021/05/25 06:01:22;;;;;;;15.48;3.15;;;;;;;11.65;68.42;101333.09;4957531;29;20058;-65
2021/05/25 06:03:50;;;;;;;21.58;3.20;;;;;;;11.58;67.95;101340.94;4956444;29;20132;-64
2021/05/25 06:06:18;;;;;;;18.73;3.22;;;;;;;11.73;67.00;101337.09;4940382;29;20047;-65
2021/05/25 06:08:45;;;;;;;16.42;2.67;;;;;;;11.85;67.03;101337.41;4957113;29;20059;-65
2021/05/25 06:11:14;;;;;;;15.95;2.92;;;;;;;11.49;67.92;101334.47;4939902;29;20058;-65
2021/05/25 06:13:42;;;;;;;15.25;2.92;;;;;;;11.73;67.62;101348.97;4957427;29;20050;-64
2021/05/25 06:16:09;;;;;;;17.98;3.35;;;;;;;11.64;67.06;101348.03;4956591;29;20054;-65
2021/05/25 06:18:37;;;;;;;18.77;4.15;;;;;;;11.93;66.79;101358.78;4957200;29;20051;-64
2021/05/25 06:21:04;;;;;;;19.40;3.03;;;;;;;11.90;65.97;101351.94;4957228;29;20051;-67
2021/05/25 06:23:34;;;;;;;12.93;2.50;;;;;;;11.56;67.31;101358.94;4939649;29;20058;-64
2021/05/25 06:26:02;;;;;;;16.17;2.50;;;;;;;11.80;66.94;101352.13;4940106;29;20039;-64
2021/05/25 06:28:31;;;;;;;21.45;3.22;;;;;;;12.23;66.16;101358.16;4957175;29;20050;-65
2021/05/25 06:30:59;;;;;;;16.92;3.08;;;;;;;12.31;65.35;101360.16;4956965;29;20050;-65
2021/05/25 06:33:28;;;;;;;19.77;3.20;;;;;;;12.38;64.82;101355.03;4957194;29;20410;-66
2021/05/25 06:35:55;;;;;;;18.48;3.05;;;;;;;12.44;64.09;101359.34;4939978;29;20051;-65
2021/05/25 06:42:46;;;;;;;21.17;2.42;;;;;;;12.52;63.94;101379.91;4956845;29;20062;-64
2021/05/25 06:45:14;;;;;;;13.90;2.75;;;;;;;12.23;64.36;101383.00;4939423;29;20063;-65
2021/05/25 06:47:41;;;;;;;18.63;3.05;;;;;;;12.21;65.20;101376.97;4956565;29;20499;-66
2021/05/25 06:50:09;;;;;;;14.45;2.10;;;;;;;12.32;65.30;101372.88;4955686;29;20059;-66
2021/05/25 06:52:36;;;;;;;18.70;2.55;;;;;;;12.14;63.38;101379.31;4938729;29;20055;-66
2021/05/25 06:55:06;;;;;;;17.02;2.97;;;;;;;11.87;64.78;101377.38;4955346;28;20531;-65
2021/05/25 06:57:33;;;;;;;20.48;3.15;;;;;;;12.09;65.12;101380.25;4938740;29;20062;-65
2021/05/25 07:00:02;;;;;;;14.77;3.20;;;;;;;12.08;65.01;101389.66;4939332;29;20051;-65
2021/05/25 07:02:30;;;;;;;18.75;2.70;;;;;;;12.21;64.61;101391.59;4956270;29;20051;-65
2021/05/25 07:04:59;;;;;;;22.58;3.13;;;;;;;12.54;63.99;101386.75;4956863;29;20399;-65
2021/05/25 07:07:26;;;;;;;16.63;2.70;;;;;;;12.31;63.55;101383.09;4956368;29;20062;-64
2021/05/25 07:09:54;;;;;;;16.15;2.60;;;;;;;12.75;63.00;101382.41;4939565;29;20368;-66
2021/05/25 07:12:21;;;;;;;15.02;3.00;;;;;;;12.99;61.81;101388.44;4956248;29;20047;-67
2021/05/25 07:14:49;;;;;;;12.85;2.30;;;;;;;13.00;60.99;101392.03;4956131;29;20055;-66
2021/05/25 07:17:16;;;;;;;14.70;2.72;;;;;;;12.88;61.33;101395.38;4955573;29;20047;-67
2021/05/25 07:19:43;;;;;;;12.50;2.20;;;;;;;13.10;60.70;101391.81;4956095;29;20055;-66
2021/05/25 07:22:11;;;;;;;13.98;2.25;;;;;;;13.36;60.39;101393.66;4955658;29;20066;-66
2021/05/25 07:24:39;;;;;;;17.80;2.97;;;;;;;13.37;60.38;101409.09;4955560;29;20059;-66
2021/05/25 07:27:07;;;;;;;16.95;2.88;;;;;;;13.43;59.54;101393.19;4955280;29;20051;-65
2021/05/25 07:29:35;;;;;;;18.65;2.78;;;;;;;13.50;59.16;101399.94;4937645;29;20062;-66
2021/05/25 07:32:02;;;;;;;21.40;2.72;;;;;;;13.74;58.45;101401.53;4955254;29;20066;-65
2021/05/25 07:34:31;;;;;;;13.75;2.40;;;;;;;13.97;57.13;101397.56;4955587;29;20059;-68
2021/05/25 07:36:59;;;;;;;15.88;2.60;;;;;;;13.82;56.77;101400.75;4923568;29;20050;-66
2021/05/25 07:39:27;;;;;;;16.88;2.13;;;;;;;13.75;57.70;101403.16;4955882;29;20046;-66
2021/05/25 07:41:57;;;;;;;13.05;2.75;;;;;;;14.29;57.04;101402.75;4955150;29;20047;-66
2021/05/25 07:44:25;;;;;;;14.10;2.50;;;;;;;14.13;56.26;101404.31;4955336;29;20051;-64
2021/05/25 07:46:54;;;;;;;15.70;2.50;;;;;;;13.82;56.91;101407.13;4955574;29;20047;-66
2021/05/25 07:49:21;;;;;;;11.18;2.20;;;;;;;14.15;57.05;101404.81;4954924;29;20503;-65
2021/05/25 07:51:50;;;;;;;16.60;2.67;;;;;;;14.17;55.74;101410.84;4939111;29;20467;-65
2021/05/25 07:58:50;;;;;;;14.98;2.70;;;;;;;13.50;56.36;101405.47;4935692;29;20051;-67
2021/05/25 08:01:21;;;;;;;19.88;2.40;;;;;;;13.74;56.76;101412.63;4918682;29;20436;-63
2021/05/25 08:03:48;;;;;;;15.82;3.03;;;;;;;14.31;55.55;101411.56;4919324;29;20052;-66
2021/05/25 08:06:18;;;;;;;13.60;2.17;;;;;;;14.58;55.27;101417.69;4918650;29;20051;-65
2021/05/25 08:13:13;;;;;;;15.93;3.22;;;;;;;15.22;52.89;101415.13;4936298;29;20538;-63
2021/05/25 08:15:41;;;;;;;11.77;2.72;;;;;;;15.28;52.78;101413.78;4935819;29;20060;-66
2021/05/25 08:20:39;;;;;;;17.90;2.60;;;;;;;15.46;52.46;101413.47;4936205;29;20043;-63
2021/05/25 08:23:24;;;;;;;16.08;2.10;;;;;;;15.70;51.65;101407.38;4935155;29;20059;-63
2021/05/25 08:25:52;;;;;;;14.27;2.60;;;;;;;16.04;51.16;101417.59;4918456;29;20052;-63
2021/05/25 08:28:20;;;;;;;13.80;3.30;;;;;;;16.30;49.86;101418.28;4902176;29;20059;-64
2021/05/25 08:30:47;;;;;;;12.75;2.60;;;;;;;16.27;49.27;101419.75;4919195;29;20052;-64
2021/05/25 08:33:18;;;;;;;14.35;3.35;;;;;;;15.90;49.88;101423.31;4935072;29;20403;-63
2021/05/25 08:35:47;;;;;;;12.02;2.42;;;;;;;15.68;49.36;101415.22;4918862;29;20487;-64
2021/05/25 08:38:17;;;;;;;11.95;2.15;;;;;;;15.94;49.73;101423.47;4935583;29;20050;-63
2021/05/25 08:40:45;;;;;;;18.92;3.70;;;;;;;16.43;48.97;101420.81;4917995;29;20139;-62
2021/05/25 08:43:12;;;;;;;12.00;2.38;;;;;;;16.42;48.99;101421.97;4902230;29;20141;-65
2021/05/25 08:45:40;;;;;;;13.10;2.30;;;;;;;16.49;48.56;101418.69;4935737;29;20064;-65
2021/05/25 08:48:08;;;;;;;12.13;2.00;;;;;;;15.96;50.05;101429.53;4917988;29;20055;-62
2021/05/25 08:51:01;;;;;;;10.13;1.90;;;;;;;16.28;48.88;101431.69;4918126;29;20476;-64
2021/05/25 08:53:29;;;;;;;8.23;1.65;;;;;;;16.32;48.48;101424.34;4934885;29;20055;-63
2021/05/25 08:55:58;;;;;;;13.63;2.35;;;;;;;16.63;48.11;101422.06;4935088;29;20513;-64
2021/05/25 08:58:27;;;;;;;10.68;2.05;;;;;;;16.43;48.55;101422.78;4950617;28;20047;-64
2021/05/25 09:00:57;;;;;;;11.77;2.20;;;;;;;16.21;48.75;101423.06;4937231;29;20146;-64
2021/05/25 09:03:25;;;;;;;;;;;;;;;16.13;48.69;101415.56;4936648;29;20055;-64
2021/05/25 09:06:06;;;;;;;8.65;1.98;;;;;;;16.24;48.71;101417.66;4953845;29;19929;-63
2021/05/25 09:08:38;;;;;;;19.80;8.38;;;;;;;16.47;48.33;101421.00;4922413;29;20043;-64
2021/05/25 09:11:08;;;;;;;16.00;5.03;;;;;;;16.52;47.65;101418.84;4936715;29;20051;-64
2021/05/25 09:13:36;;;;;;;13.15;2.60;;;;;;;16.66;47.00;101416.63;4937160;29;20051;-64
2021/05/25 09:16:07;;;;;;;10.75;2.42;;;;;;;16.52;46.72;101413.28;4935986;29;20410;-64
2021/05/25 09:18:45;;;;;;;8.82;2.03;;;;;;;15.79;48.02;101422.06;4953749;28;20055;-63
2021/05/25 09:21:31;;;;;;;12.52;1.90;;;;;;;16.31;47.70;101409.59;4938049;29;20047;-66
2021/05/25 09:23:58;;;;;;;12.05;2.20;;;;;;;16.31;47.47;101422.69;4937078;29;20425;-64
2021/05/25 09:26:28;;;;;;;10.35;2.55;;;;;;;16.06;47.23;101421.63;4953604;29;20059;-65
2021/05/25 09:29:08;;;;;;;12.23;2.42;;;;;;;15.98;47.88;101416.94;4954038;29;20043;-65
2021/05/25 09:31:40;;;;;;;18.45;2.72;;;;;;;16.24;47.67;101411.28;4953981;28;20047;-63
2021/05/25 09:34:13;;;;;;;9.40;2.30;;;;;;;16.34;47.28;101410.88;4937472;29;20054;-64
2021/05/25 09:37:00;;;;;;;16.38;2.40;;;;;;;16.43;46.55;101408.88;4953697;29;20051;-63
2021/05/25 09:39:54;;;;;;;9.75;2.22;;;;;;;16.13;47.63;101399.72;4954036;29;20114;-64
2021/05/25 09:42:21;;;;;;;9.70;2.10;;;;;;;16.11;48.16;101404.78;4953688;29;20071;-64
2021/05/25 09:45:03;;;;;;;11.40;2.20;;;;;;;16.39;47.83;101400.38;4936009;29;20055;-66
2021/05/25 09:47:52;;;;;;;9.95;3.10;;;;;;;16.62;47.28;101401.75;4925920;29;20055;-65
2021/05/25 09:50:22;;;;;;;11.75;2.15;;;;;;;16.18;47.20;101395.94;4953127;29;20047;-65
2021/05/25 09:52:58;;;;;;;;;;;;;;;16.12;48.28;101402.81;4953935;29;20051;-65
2021/05/25 09:55:26;;;;;;;10.35;2.45;;;;;;;16.16;48.25;101403.78;4953339;29;19922;-66
2021/05/25 09:57:56;;;;;;;15.77;2.80;;;;;;;16.48;47.22;101408.72;4935398;29;20051;-66
2021/05/25 10:00:25;;;;;;;10.20;2.10;;;;;;;16.40;46.08;101404.00;4937125;29;20395;-65
2021/05/25 10:03:06;;;;;;;11.40;2.05;;;;;;;16.26;47.08;101406.19;4952943;29;20048;-65
2021/05/25 10:05:34;;;;;;;8.55;2.58;;;;;;;16.25;47.38;101404.56;4952681;29;20078;-68
2021/05/25 10:08:03;;;;;;;9.02;2.03;;;;;;;16.00;48.47;101425.78;4935615;29;20081;-67
2021/05/25 10:10:32;;;;;;;9.75;2.10;;;;;;;15.92;50.60;101425.81;4953384;29;20043;-65
2021/05/25 10:13:00;;;;;;;16.47;2.53;;;;;;;15.55;52.09;101453.16;4935369;29;20048;-64
2021/05/25 10:15:28;;;;;;;7.88;1.70;;;;;;;15.59;50.71;101445.81;4936246;29;20310;-64
2021/05/25 10:20:48;;;;;;;6.78;1.23;;;;;;;13.54;58.29;101472.09;4953029;29;20059;-62
2021/05/25 10:23:16;;;;;;;7.28;1.60;;;;;;;13.93;58.57;101472.16;4952808;29;20499;-66
2021/05/25 10:25:45;;;;;;;8.35;1.83;;;;;;;13.50;60.00;101484.91;4952501;29;20048;-65
2021/05/25 10:28:13;;;;;;;9.80;2.35;;;;;;;13.51;60.95;101481.81;4936443;29;20157;-65
2021/05/25 10:30:44;;;;;;;11.20;2.10;;;;;;;13.32;62.88;101485.88;4954946;28;20051;-65
2021/05/25 10:33:11;;;;;;;9.90;1.77;;;;;;;12.86;66.15;101483.34;4956794;29;20352;-65
2021/05/25 10:35:54;;;;;;;8.10;1.90;;;;;;;12.95;66.10;101495.31;4937841;29;20062;-64
2021/05/25 10:38:23;;;;;;;8.85;1.83;;;;;;;12.72;68.62;101493.59;4955719;29;20387;-62
2021/05/25 10:40:54;;;;;;;8.07;1.85;;;;;;;13.21;67.29;101503.88;4937806;29;20047;-63
2021/05/25 10:43:42;;;;;;;13.50;2.85;;;;;;;13.29;66.78;101495.66;4938021;29;20482;-66
2021/05/25 10:46:12;;;;;;;6.65;2.22;;;;;;;13.30;67.54;101490.94;4955003;29;20063;-67
2021/05/25 10:49:03;;;;;;;9.80;3.42;;;;;;;13.44;68.56;101492.50;4955431;29;20132;-66
2021/05/25 10:58:35;;;;;;;9.80;2.22;;;;;;;14.39;65.07;101471.75;4955802;28;20047;-63
2021/05/25 11:01:07;;;;;;;11.07;3.15;;;;;;;14.75;64.85;101468.78;4955951;29;20514;-61
2021/05/25 11:03:35;;;;;;;8.23;2.38;;;;;;;15.25;62.75;101478.28;4955420;29;20082;-63
2021/05/25 11:06:05;;;;;;;7.20;2.20;;;;;;;15.54;62.15;101470.16;4938806;29;20047;-66
2021/05/25 11:08:36;;;;;;;9.52;2.85;;;;;;;15.54;60.78;101467.38;4938264;29;20108;-65
2021/05/25 11:11:05;;;;;;;13.70;2.78;;;;;;;15.71;59.15;101459.81;4955856;29;20047;-61
2021/05/25 11:13:40;;;;;;;16.95;3.00;;;;;;;15.61;59.06;101462.13;4956042;29;20055;-60
2021/05/25 11:16:19;;;;;;;11.65;2.97;;;;;;;15.57;58.95;101458.38;4955542;29;20074;-61
2021/05/25 11:19:03;;;;;;;9.70;2.10;;;;;;;15.77;58.87;101458.53;4956213;29;20051;-62
2021/05/25 11:24:26;;;;;;;10.35;2.17;;;;;;;16.09;57.79;101447.97;4956018;29;20047;-64
2021/05/25 11:27:46;;;;;;;8.98;2.13;;;;;;;16.61;56.61;101452.16;4915806;29;20096;-63
2021/05/25 11:30:31;;;;;;;7.85;2.00;;;;;;;16.72;55.14;101443.09;4914983;29;20068;-62
2021/05/25 11:33:03;;;;;;;8.57;1.73;;;;;;;16.73;54.45;101443.91;4915027;29;20436;-63
2021/05/25 11:35:33;;;;;;;11.10;2.72;;;;;;;16.79;53.70;101428.63;4914800;29;20052;-65
2021/05/25 11:38:03;;;;;;;11.90;2.30;;;;;;;16.89;52.88;101428.25;4914850;29;20056;-66
2021/05/25 11:40:36;;;;;;;8.68;2.25;;;;;;;16.78;52.83;101436.19;4899669;29;20052;-65
2021/05/25 11:43:04;;;;;;;9.43;2.95;;;;;;;16.97;52.00;101430.16;4914806;29;20056;-66
2021/05/25 11:45:32;;;;;;;9.52;1.90;;;;;;;16.97;49.74;101434.91;4942686;29;20054;-67
2021/05/25 11:48:01;;;;;;;7.45;2.78;;;;;;;16.65;49.67;101425.28;4954625;29;20483;-67
2021/05/25 11:50:38;;;;;;;6.50;1.43;;;;;;;16.22;50.41;101431.06;4954566;29;20058;-66
2021/05/25 11:53:09;;;;;;;6.97;1.95;;;;;;;16.15;50.30;101432.72;4938448;29;20047;-68
2021/05/25 11:55:41;;;;;;;6.82;1.63;;;;;;;16.15;49.54;101443.84;4937526;29;20047;-67
2021/05/25 11:58:09;;;;;;;8.38;1.75;;;;;;;16.33;49.34;101431.50;4937834;29;20055;-67
2021/05/25 12:00:37;;;;;;;8.65;1.70;;;;;;;16.58;49.50;101425.03;4937431;29;20051;-68
2021/05/25 12:03:09;;;;;;;12.05;2.28;;;;;;;16.93;49.10;101423.63;4922406;29;20055;-66
2021/05/25 12:05:37;;;;;;;11.25;2.08;;;;;;;16.54;49.79;101421.28;4954847;29;20055;-64
2021/05/25 12:08:11;;;;;;;8.88;1.73;;;;;;;16.29;49.10;101408.28;4955021;29;20051;-66
2021/05/25 12:10:42;;;;;;;8.70;1.95;;;;;;;16.24;48.83;101414.88;4954187;29;20059;-63
2021/05/25 12:13:14;;;;;;;9.05;2.13;;;;;;;16.33;48.60;101421.22;4954975;29;20059;-66
2021/05/25 12:15:44;;;;;;;9.23;1.95;;;;;;;16.32;48.28;101418.78;4953977;29;20088;-64
2021/05/25 12:18:13;;;;;;;11.85;2.10;;;;;;;16.25;48.24;101408.16;4954745;29;20054;-67
2021/05/25 12:20:41;;;;;;;14.10;2.00;;;;;;;16.14;47.71;101417.22;4937804;29;20054;-66
2021/05/25 12:23:14;;;;;;;11.18;2.22;;;;;;;15.97;48.13;101411.72;4954782;29;20047;-65
2021/05/25 12:25:43;;;;;;;14.90;2.03;;;;;;;16.19;49.00;101411.47;4954239;29;20051;-66
2021/05/25 12:28:14;;;;;;;12.25;1.92;;;;;;;16.46;48.50;101411.84;4937456;29;20055;-66
2021/05/25 12:30:48;;;;;;;12.13;2.90;;;;;;;16.38;46.80;101412.69;4937560;29;20058;-63
2021/05/25 12:33:20;;;;;;;7.00;1.45;;;;;;;16.11;46.35;101407.56;4954732;29;20062;-63